This is the latest recevied weather packets stored in our database for station/object OE6CBX-1. If no packets are shown the sender has not sent any weather packets the latest 10 day(s).
| Time | Temp. | Humidity | Pressure | Rain* | Wind** | Luminosity | Snow |
|---|---|---|---|---|---|---|---|
| 1777544182 | 18.33° C | 14% | 990 hPa | - | - | - | - |
| 1777543282 | 17.78° C | 14% | 990.1 hPa | - | - | - | - |
| 1777542382 | 17.78° C | 15% | 990.3 hPa | - | - | - | - |
| 1777541482 | 17.22° C | 14% | 990.5 hPa | - | - | - | - |
| 1777540582 | 17.78° C | 14% | 990.5 hPa | - | - | - | - |
| 1777539682 | 18.33° C | 13% | 990.7 hPa | - | - | - | - |
| 1777538782 | 21.67° C | 12% | 990.6 hPa | - | - | - | - |
| 1777537881 | 21.11° C | 12% | 990.6 hPa | - | - | - | - |
| 1777536981 | 20.56° C | 14% | 990.7 hPa | - | - | - | - |
| 1777536912 | 20° C | 14% | 990.8 hPa | - | - | - | - |
| 1777536012 | 20.56° C | 13% | 990.8 hPa | - | - | - | - |
| 1777535112 | 21.11° C | 13% | 990.7 hPa | - | - | - | - |
| 1777534212 | 19.44° C | 15% | 991 hPa | - | - | - | - |
| 1777533312 | 18.89° C | 15% | 991.1 hPa | - | - | - | - |
| 1777532412 | 17.22° C | 17% | 991.2 hPa | - | - | - | - |
| 1777531512 | 15.56° C | 20% | 991.2 hPa | - | - | - | - |
| 1777530612 | 11.11° C | 26% | 991.3 hPa | - | - | - | - |
| 1777529712 | 11.11° C | 28% | 991.3 hPa | - | - | - | - |
| 1777528811 | 9.44° C | 32% | 991.4 hPa | - | - | - | - |
| 1777527911 | 8.33° C | 34% | 991.3 hPa | - | - | - | - |
| 1777527011 | 7.22° C | 36% | 991.3 hPa | - | - | - | - |
| 1777526111 | 6.67° C | 39% | 991.4 hPa | - | - | - | - |
| 1777525211 | 5.56° C | 40% | 991.3 hPa | - | - | - | - |
| 1777524311 | 4.44° C | 42% | 991.2 hPa | - | - | - | - |
| 1777523411 | 3.33° C | 46% | 991.1 hPa | - | - | - | - |
* Rain since midnight (hover to see other rain measurements)
** Current wind speed in m/s (hover to see current wind gust speed)